Latest Coastal Weather Observations for Coolangatta

IDQ60701

Issued at 5:52 pm EST Tuesday 26 May 2020 (issued every 10 minutes, with the page automatically refreshed every 10 minutes)

About coastal observations | Map of coastal stations | Coastal observations for QLD | Marine services | Other Formats
Station Details ID: 040717 Name: COOLANGATTA Lat: -28.17 Lon: 153.51 Height: 4.0 m
Data from the previous 72 hours. | See also: Recent months at Coolangatta

Observations at Coolangatta are collected in the Queensland time zone, which does not include daylight savings during the summer period. Therefore 'Rain since 9am' totals and other values are based on the Queensland time zone.

Date/Time
EST
Wind Sea
Height
m
Swell Vis
km
Cloud Weather Temp
°C
Press
hPa
Rain since
9am
mm
Dir  Spd
kts
Gust
kts
Height
m
Period
s
Dir
26/05:30pm NW 4 5 - - - - 10 - - 16.7 1016.8 0.0
26/05:00pm NNW 4 7 - - - - 10 - - 18.3 1016.5 0.0
26/04:30pm N 7 8 - - - - 10 - - 20.2 1016.1 0.0
26/04:00pm N 8 9 - - - - 10 - - 21.4 1015.8 0.0
26/03:30pm N 9 11 - - - - 10 - - 21.6 1015.8 0.0
26/03:00pm N 11 13 - - - - 10 - - 22.2 1015.5 0.0
26/02:30pm N 11 14 - - - - 10 - - 22.2 1015.2 0.0
26/02:00pm N 11 15 - - - - 10 - - 22.5 1015.3 0.0
26/01:30pm N 11 14 - - - - 10 - - 22.0 1015.3 0.0
26/01:00pm N 12 13 - - - - 10 - - 22.3 1015.6 0.0
26/12:30pm N 12 15 - - - - 10 - - 22.2 1016.2 0.0
26/12:00pm N 9 11 - - - - 10 - - 22.6 1016.5 0.0
26/11:30am N 7 11 - - - - 10 - - 21.8 1017.1 0.0
26/11:00am WSW 5 7 - - - - 10 - - 21.9 1017.3 0.0
26/10:30am W 6 8 - - - - 10 - - 21.5 1017.7 0.0
26/10:00am WSW 4 6 - - - - 10 - - 20.6 1017.8 0.0
26/09:30am SSW 5 6 - - - - 10 - - 19.8 1018.0 0.0
26/09:00am SSW 6 8 - - - - 10 - - 19.2 1017.8 0.2
26/08:30am WSW 6 7 - - - - 10 - - 17.2 1017.9 0.2
26/08:00am WSW 6 7 - - - - 10 - - 14.2 1017.8 0.2
26/07:30am SW 2 4 - - - - 10 - - 12.0 1017.6 0.2
26/07:00am SW 4 5 - - - - 10 - - 10.5 1017.3 0.2
26/06:30am WSW 4 4 - - - - 10 - - 9.4 1016.7 0.2
26/06:00am WSW 3 5 - - - - 10 - - 9.0 1016.2 0.2
26/05:30am CALM 0 3 - - - - 10 - - 10.0 1016.0 0.2
26/05:00am SW 2 5 - - - - 10 - - 9.7 1015.8 0.2
26/04:30am SW 1 3 - - - - 10 - - 9.9 1015.7 0.2
26/04:00am SW 4 5 - - - - 10 - - 9.2 1015.8 0.2
26/03:30am SW 4 5 - - - - 10 - - 9.7 1015.6 0.2
26/03:00am WSW 3 4 - - - - 10 - - 10.8 1015.7 0.2
26/02:30am WSW 5 6 - - - - 10 - - 10.7 1015.6 0.2
26/02:00am WSW 4 6 - - - - 10 - - 10.1 1015.7 0.2
26/01:30am W 3 5 - - - - 10 - - 9.6 1015.7 0.2
26/01:04am WSW 3 4 - - - - 10 - - 10.5 1015.7 0.2
26/01:00am WSW 3 4 - - - - 10 - - 10.3 1015.7 0.2
26/12:43am WSW 2 3 - - - - 5 - - 10.5 1015.6 0.2
26/12:30am WSW 3 4 - - - - 10 - - 10.7 1015.6 0.2
26/12:00am WSW 3 4 - - - - 10 - - 11.5 1015.4 0.2
 
Date/Time
EST
Wind Sea
Height
m
Swell Vis
km
Cloud Weather Temp
°C
Press
hPa
Rain since
9am
mm
Dir  Spd
kts
Gust
kts
Height
m
Period
s
Dir
25/11:30pm WSW 4 4 - - - - 10 - - 12.2 1015.4 0.2
25/11:00pm WSW 3 4 - - - - 10 - - 11.5 1015.5 0.2
25/10:30pm CALM 0 3 - - - - 10 - - 11.9 1015.6 0.2
25/10:00pm WSW 3 4 - - - - 10 - - 12.6 1015.6 0.2
25/09:30pm CALM 0 3 - - - - 10 - - 13.0 1015.6 0.2
25/09:00pm WSW 3 4 - - - - 10 - - 13.1 1015.6 0.2
25/08:30pm WSW 6 7 - - - - 10 - - 13.3 1015.5 0.2
25/08:00pm WSW 5 6 - - - - 10 - - 13.4 1015.6 0.2
25/07:30pm WSW 5 6 - - - - 10 - - 13.7 1015.3 0.2
25/07:00pm WSW 3 4 - - - - 10 - - 14.3 1015.2 0.2
25/06:30pm WSW 5 6 - - - - 10 - - 14.6 1014.9 0.2
25/06:00pm WSW 4 5 - - - - 10 - - 15.0 1014.7 0.2
25/05:30pm N 5 6 - - - - 10 - - 14.9 1014.4 0.2
25/05:00pm NNE 3 4 - - - - 10 - - 16.6 1014.1 0.2
25/04:30pm NNE 3 4 - - - - 10 - - 20.3 1013.9 0.2
25/04:00pm NNE 5 7 - - - - 10 - - 20.5 1013.7 0.2
25/03:30pm NE 6 8 - - - - 10 - - 20.8 1013.5 0.2
25/03:00pm NE 7 9 - - - - 10 - - 20.9 1013.4 0.2
25/02:30pm NE 7 10 - - - - 10 - - 21.1 1013.3 0.2
25/02:00pm NNE 8 9 - - - - 10 - - 21.4 1013.1 0.2
25/01:30pm NE 9 11 - - - - 10 - - 21.8 1013.1 0.2
25/01:00pm NNE 9 11 - - - - 10 - - 21.4 1013.2 0.2
25/12:30pm NNE 7 8 - - - - 10 - - 21.6 1013.3 0.2
25/12:00pm W 3 5 - - - - 10 - - 21.4 1013.7 0.2
25/11:30am SW 6 10 - - - - 10 - - 21.2 1014.2 0.2
25/11:00am SW 6 10 - - - - 10 - - 20.8 1014.8 0.2
25/10:30am W 4 7 - - - - 10 - - 20.4 1014.9 0.0
25/10:00am NNW 3 6 - - - - 10 - - 20.0 1015.5 0.0
25/09:30am WSW 1 4 - - - - 10 - - 19.4 1015.7 0.0
25/09:00am SW 2 4 - - - - 10 - - 17.3 1015.6 1.4
25/08:30am WSW 1 3 - - - - 10 - - 15.3 1015.1 1.4
25/08:00am WSW 1 4 - - - - 10 - - 13.3 1014.8 1.4
25/07:30am WSW 4 5 - - - - 10 - - 11.7 1014.7 1.4
25/07:00am SW 2 4 - - - - 10 - - 10.7 1014.2 1.4
25/06:30am SW 7 9 - - - - 10 - - 10.8 1013.9 1.4
25/06:00am SW 2 4 - - - - 10 - - 10.5 1013.4 1.4
25/05:30am SW 1 4 - - - - 10 - - 10.3 1012.8 1.4
25/05:00am SW 1 4 - - - - 10 - - 10.5 1012.6 1.4
25/04:30am SW 1 3 - - - - 10 - - 10.7 1012.3 1.4
25/04:00am WSW 2 4 - - - - 10 - - 10.5 1012.1 1.4
25/03:30am WSW 4 6 - - - - 10 - - 10.2 1012.1 1.4
25/03:00am CALM 0 0 - - - - 10 Mostly clear - 9.5 1011.7 1.4
25/02:30am WSW 4 4 - - - - 10 - - 10.5 1011.5 1.4
25/02:00am WSW 5 6 - - - - 10 - - 10.9 1011.5 1.4
25/01:30am SW 6 6 - - - - 10 - - 11.3 1011.6 1.4
25/01:00am SW 2 5 - - - - 10 - - 10.4 1011.4 1.4
25/12:30am SW 5 6 - - - - 10 Partly cloudy - 11.4 1011.5 1.4
25/12:00am SW 3 4 - - - - 10 - - 11.0 1011.6 1.4
 
Date/Time
EST
Wind Sea
Height
m
Swell Vis
km
Cloud Weather Temp
°C
Press
hPa
Rain since
9am
mm
Dir  Spd
kts
Gust
kts
Height
m
Period
s
Dir
24/11:30pm W 3 4 - - - - 10 - - 11.1 1011.4 1.4
24/11:00pm WSW 5 7 - - - - 10 Partly cloudy - 12.0 1011.4 1.4
24/10:30pm SW 2 5 - - - - 10 - - 11.9 1011.4 1.4
24/10:20pm SW 1 4 - - - - 10 - - 12.1 1011.4 1.4
24/10:07pm SW 1 3 - - - - 6 - - 11.6 1011.3 1.4
24/10:00pm SW 2 4 - - - - 10 - - 12.0 1011.3 1.4
24/09:30pm WSW 1 4 - - - - 10 - - 13.1 1011.0 1.4
24/09:00pm W 4 5 - - - - 10 Cloudy Recent precip. 13.4 1010.7 1.4
24/08:30pm SW 3 4 - - - - 10 Partly cloudy - 13.7 1010.8 1.4
24/08:00pm CALM 0 0 - - - - 10 - - 13.8 1010.6 1.2
24/07:30pm CALM 0 0 - - - - 10 - - 13.7 1010.4 1.2
24/07:00pm SW 3 3 - - - - 10 Partly cloudy - 14.1 1010.3 1.2
24/06:30pm CALM 0 4 - - - - 10 Partly cloudy - 14.3 1010.4 1.2
24/06:00pm W 3 4 - - - - 10 Cloudy - 14.5 1009.9 1.2
24/05:30pm W 5 6 - - - - 10 Partly cloudy - 14.6 1009.5 1.2
24/05:00pm WSW 5 6 - - - - 10 Partly cloudy - 14.9 1009.3 1.2
24/04:30pm SW 4 5 - - - - 10 Partly cloudy - 15.1 1008.9 1.2
24/04:12pm CALM 0 0 - - - - 10 Partly cloudy - 15.1 1008.8 1.2
24/04:00pm S 3 7 - - - - 5 Partly cloudy - 15.0 1008.7 1.2
24/03:57pm S 5 7 - - - - 6 Partly cloudy - 14.8 1008.8 1.0
24/03:30pm SSW 8 11 - - - - 10 Partly cloudy - 16.5 1008.6 0.0
24/03:00pm N 7 9 - - - - 10 Mostly cloudy - 20.1 1008.4 0.0
24/02:30pm N 9 11 - - - - 10 - - 20.0 1008.4 0.0
24/02:00pm N 9 11 - - - - 10 - - 19.9 1008.4 0.0
24/01:30pm N 8 10 - - - - 10 - - 20.0 1008.5 0.0
24/01:00pm N 9 11 - - - - 10 - - 20.1 1008.8 0.0
24/12:30pm N 8 11 - - - - 10 - - 19.6 1009.1 0.0
24/12:00pm S 3 6 - - - - 10 - - 20.2 1009.4 0.0
24/11:30am SSW 5 8 - - - - 10 - - 19.8 1009.5 0.0
24/11:00am WSW 8 11 - - - - 10 - - 19.2 1009.7 0.0
24/10:30am SSW 7 11 - - - - 10 - - 19.0 1009.9 0.0
24/10:00am SSW 7 10 - - - - 10 - - 18.6 1009.9 0.0
24/09:30am SSW 3 5 - - - - 10 - - 17.3 1010.0 0.0
24/09:00am SSW 3 5 - - - - 10 - - 16.1 1009.9 0.0
24/08:30am CALM 0 3 - - - - 10 - - 14.1 1009.9 0.0
24/08:00am WSW 3 5 - - - - 10 - - 10.9 1009.6 0.0
24/07:30am WSW 2 4 - - - - 10 - - 8.9 1009.7 0.0
24/07:00am WSW 3 4 - - - - 10 - - 6.7 1009.4 0.0
24/06:30am CALM 0 0 - - - - 10 - - 5.7 1009.1 0.0
24/06:00am WSW 3 5 - - - - 10 - - 6.2 1008.8 0.0
24/05:30am WSW 2 5 - - - - 10 - - 7.2 1008.6 0.0
24/05:00am WSW 4 7 - - - - 10 - - 7.2 1008.3 0.0
24/04:30am WSW 5 6 - - - - 10 - - 6.9 1008.2 0.0
24/04:00am W 4 5 - - - - 10 - - 6.4 1008.2 0.0
24/03:30am W 1 3 - - - - 10 - - 6.3 1008.1 0.0
24/03:00am WNW 3 4 - - - - 10 - - 5.6 1008.0 0.0
24/02:30am NW 1 3 - - - - 10 - - 6.0 1008.1 0.0
24/02:00am WNW 5 5 - - - - 10 - - 6.1 1008.0 0.0
24/01:30am SW 4 5 - - - - 10 - - 6.7 1008.0 0.0
24/01:00am CALM 0 0 - - - - 10 - - 7.2 1008.4 0.0
24/12:30am WSW 6 6 - - - - 10 - - 8.2 1008.6 0.0
24/12:00am SW 5 6 - - - - 10 - - 8.7 1008.5 0.0
 
Date/Time
EST
Wind Sea
Height
m
Swell Vis
km
Cloud Weather Temp
°C
Press
hPa
Rain since
9am
mm
Dir  Spd
kts
Gust
kts
Height
m
Period
s
Dir
23/11:30pm WSW 5 6 - - - - 10 - - 7.2 1009.0 0.0
23/11:00pm CALM 0 0 - - - - 10 - - 8.4 1009.2 0.0
23/10:30pm SW 5 7 - - - - 10 - - 9.6 1009.4 0.0
23/10:00pm SW 5 6 - - - - 10 - - 11.0 1008.9 0.0
23/09:30pm SW 3 5 - - - - 10 - - 11.0 1009.2 0.0
23/09:00pm SW 4 6 - - - - 10 - - 10.9 1008.8 0.0
23/08:30pm SW 5 8 - - - - 10 - - 11.2 1009.0 0.0
23/08:00pm SW 4 5 - - - - 10 - - 11.0 1008.6 0.0
23/07:30pm WSW 6 7 - - - - 10 - - 11.6 1008.4 0.0
23/07:00pm W 4 6 - - - - 10 - - 10.9 1008.4 0.0
23/06:30pm WSW 5 7 - - - - 10 - - 12.3 1007.9 0.0
23/06:00pm WSW 3 7 - - - - 10 Mostly cloudy - 12.4 1008.6 0.0

Other formats

Comma delimited format used in spreadsheet applications
http://www.bom.gov.au/fwo/IDQ60701/IDQ60701.94592.axf

JavaScript Object Notation format (JSON) in row-major order
http://www.bom.gov.au/fwo/IDQ60701/IDQ60701.94592.json

Data quality

Most of these data are generated automatically and are frequently updated. Quality checks on data are not normally performed. It is possible for incorrect values to appear. Refer to information at About Latest Weather Observations and please check the disclaimer before using these data.